»·PEaware :: SWA1210 KPSP-KPHX

SWA1210 :: KPSP-KPHX

FLIGHT INFORMATION

Flight Status: Arrived
Operator:
Southwest Airlines
More flights by this operator :: More flights under this callsign
Pilot: Drew L. (13237)
Aircraft: BOEING 737-800
(B738)
More flights by this aircraft type
Origin: KPSP Palm Springs Intl
United States
Destination: KPHX Phoenix Sky Harbor Intl
United States
More flights between these airports :: More routes between these airports
Route: +CATH1 PSP BLH HYDRR1
File this flight plan on PilotEdge
Remarks: PBN / A1B1C1D1S1S2 NAV / RNVD1E2A1 REG / N352SW EET / KZAB0025 SEL / ALDF RMK / SIMBRIEF
Altitude:
(Current/Filed)
25,000ft
Speed:
(Current/Filed)
462kts
Departed: 29-Sep-18 07:52 PM
Arrived: 29-Sep-18 08:45 PM
Distance/Time
Traveled:
227nm/0:53
Distance/Time
To Go:
Arrived

Flight Plot

Page will automatically refresh every two minutes.


Map Options




Map Legend


Flown Route
Filed Route
Departure Airport
Arrival Airport
Navaid (VOR, NDB)
Fix

Horizontal Profiles

Position Reports

Time Latitude Longitude Heading Altitude Ground
Speed
29-Sep-18 19:28 33.823117 -116.505684 273 484ft 0kts
29-Sep-18 19:29 33.823117 -116.505684 273 484ft 0kts
29-Sep-18 19:30 33.823117 -116.505684 273 484ft 0kts
29-Sep-18 19:31 33.823117 -116.505684 273 484ft 0kts
29-Sep-18 19:32 33.823117 -116.505684 273 484ft 0kts
29-Sep-18 19:33 33.823117 -116.505684 273 484ft 0kts
29-Sep-18 19:34 33.823117 -116.505684 273 484ft 0kts
29-Sep-18 19:35 33.823117 -116.505684 273 484ft 0kts
29-Sep-18 19:36 33.823117 -116.505684 273 484ft 0kts
29-Sep-18 19:37 33.823117 -116.505684 273 484ft 0kts
29-Sep-18 19:38 33.823117 -116.505684 273 484ft 0kts
29-Sep-18 19:39 33.823117 -116.505684 273 484ft 0kts
29-Sep-18 19:40 33.823117 -116.505684 273 484ft 0kts
29-Sep-18 19:41 33.823117 -116.505684 273 484ft 0kts
29-Sep-18 19:42 33.823117 -116.505684 273 484ft 0kts
29-Sep-18 19:43 33.823117 -116.505684 273 484ft 0kts
29-Sep-18 19:44 33.823117 -116.505684 273 484ft 0kts
29-Sep-18 19:45 33.823117 -116.505684 273 485ft 0kts
29-Sep-18 19:46 33.823127 -116.505162 235 485ft 2kts
29-Sep-18 19:47 33.823516 -116.505097 141 485ft 1kts
29-Sep-18 19:48 33.823531 -116.505111 142 484ft 0kts
29-Sep-18 19:49 33.823531 -116.505111 142 484ft 0kts
29-Sep-18 19:50 33.822985 -116.504363 85 484ft 10kts
29-Sep-18 19:51 33.818748 -116.499944 138 485ft 23kts
29-Sep-18 19:52 33.818472 -116.499266 88 485ft 0kts
29-Sep-18 19:53 33.819388 -116.498503 323 485ft 27kts
29-Sep-18 19:54 33.840977 -116.517517 326 1040ft 158kts
29-Sep-18 19:55 33.880998 -116.507466 87 2580ft 230kts
29-Sep-18 19:56 33.870988 -116.435521 100 3817ft 284kts
29-Sep-18 19:57 33.836246 -116.349604 119 6562ft 300kts
29-Sep-18 19:58 33.813301 -116.259533 103 9254ft 308kts
29-Sep-18 19:59 33.798549 -116.153819 104 11335ft 336kts
29-Sep-18 20:00 33.782668 -116.040601 104 12903ft 350kts
29-Sep-18 20:01 33.766660 -115.926903 104 13557ft 350kts
29-Sep-18 20:02 33.750091 -115.810171 104 16012ft 362kts
29-Sep-18 20:03 33.732758 -115.689097 104 18252ft 375kts
29-Sep-18 20:04 33.714695 -115.563854 105 20345ft 388kts
29-Sep-18 20:05 33.695827 -115.434023 105 22262ft 400kts
29-Sep-18 20:06 33.676676 -115.303156 105 23958ft 412kts
29-Sep-18 20:07 33.657458 -115.172746 105 24857ft 428kts
29-Sep-18 20:08 33.635876 -115.027750 103 24852ft 454kts
29-Sep-18 20:09 33.613662 -114.878695 103 24845ft 454kts
29-Sep-18 20:10 33.590510 -114.729586 106 24845ft 454kts
29-Sep-18 20:11 33.561530 -114.582667 106 24846ft 453kts
29-Sep-18 20:12 33.532743 -114.435676 106 24847ft 453kts
29-Sep-18 20:13 33.505862 -114.299131 106 24842ft 453kts
29-Sep-18 20:14 33.483893 -114.188050 106 24788ft 449kts
29-Sep-18 20:15 33.456454 -114.049798 107 23801ft 412kts
29-Sep-18 20:16 33.429821 -113.917415 107 22952ft 412kts
29-Sep-18 20:17 33.403450 -113.786264 106 21429ft 398kts
29-Sep-18 20:18 33.377767 -113.659308 106 19930ft 389kts
29-Sep-18 20:19 33.352569 -113.535427 106 18428ft 378kts
29-Sep-18 20:20 33.329013 -113.414646 104 16930ft 370kts
29-Sep-18 20:21 33.312406 -113.317561 104 15704ft 363kts
29-Sep-18 20:22 33.301051 -113.251840 104 14855ft 357kts
29-Sep-18 20:23 33.284730 -113.143478 102 14001ft 350kts
29-Sep-18 20:24 33.274213 -113.027826 90 13293ft 352kts
29-Sep-18 20:25 33.277965 -112.921438 91 12570ft 325kts
29-Sep-18 20:26 33.280728 -112.813566 89 11873ft 327kts
29-Sep-18 20:27 33.290845 -112.710567 85 11163ft 312kts
29-Sep-18 20:28 33.300472 -112.608109 85 10468ft 311kts
29-Sep-18 20:29 33.309806 -112.507583 85 9781ft 307kts
29-Sep-18 20:30 33.318882 -112.408897 85 9101ft 304kts
29-Sep-18 20:31 33.326911 -112.321610 86 8965ft 266kts
29-Sep-18 20:32 33.334252 -112.241476 86 9059ft 249kts
29-Sep-18 20:33 33.341585 -112.160344 86 8975ft 255kts
29-Sep-18 20:34 33.348178 -112.077793 93 8392ft 252kts
29-Sep-18 20:35 33.346550 -111.996014 92 7158ft 249kts
29-Sep-18 20:36 33.338109 -111.916193 109 5771ft 243kts
29-Sep-18 20:37 33.315807 -111.842312 109 5002ft 238kts
29-Sep-18 20:38 33.292512 -111.768161 109 4997ft 239kts
29-Sep-18 20:39 33.285320 -111.692541 71 4989ft 235kts
29-Sep-18 20:40 33.337049 -111.680692 330 5015ft 225kts
29-Sep-18 20:41 33.390441 -111.715623 331 4985ft 210kts
29-Sep-18 20:42 33.431052 -111.759679 284 4888ft 208kts
29-Sep-18 20:43 33.432067 -111.825514 268 3989ft 182kts
29-Sep-18 20:44 33.431074 -111.887604 270 2778ft 188kts
29-Sep-18 20:45 33.430888 -111.941854 270 2047ft 154kts
29-Sep-18 20:46 33.431021 -111.992819 270 1167ft 150kts
29-Sep-18 20:47 33.431754 -112.012741 357 1116ft 7kts
29-Sep-18 20:48 33.432868 -112.009766 90 1116ft 22kts
29-Sep-18 20:49 33.432827 -111.999937 89 1116ft 36kts
29-Sep-18 20:50 33.433299 -111.993352 316 1116ft 6kts
29-Sep-18 20:51 33.433653 -111.993721 320 1116ft 0kts
29-Sep-18 20:52 33.433653 -111.993721 320 1116ft 0kts
29-Sep-18 20:53 33.433653 -111.993721 320 1116ft 0kts
29-Sep-18 20:54 33.433653 -111.993721 320 1116ft 0kts
29-Sep-18 20:55 33.433653 -111.993721 320 1116ft 0kts
29-Sep-18 20:56 33.433653 -111.993721 320 1116ft 0kts

Navigation Log

Ident Type
1. KPSP Airport
2. EMRUD Fix
3. PSP Navaid
4. BLH Navaid
5. SCOLE Fix
6. SPINK Fix
7. SNRRA Fix
8. SWOON Fix
9. HYDRR Fix
10. GEELA Fix
11. PUNNT Fix
12. TEICH Fix
13. TESLE Fix
14. FALGO Fix
15. CAGOR Fix
16. FOWLE Fix
17. KPHX Airport